KBFW

Silver Bay Municipal Airport

Silver Bay, Minnesota, USA
METAR KBFW 220303Z AUTO 00000KT 7SM CLR 03/03 A3023 RMK AO2
Observed Flight Rules
Sep-22 @ 03:03 UTC (24 minutes ago) Visual Flight Rules
Visibility Clouds
7 miles
Temperatures Readings
Current 3°C / 37°F
Dewpoint 3°C / 37°F
Humidity 100%
Altimeter 30.23" Hg
Pressure 1024 hPa
Elevation 331
METAR KBFW 220303Z AUTO 00000KT 7SM CLR 03/03 A3023 RMK AO2
Observed Flight Rules
Sep-22 @ 03:03 UTC
(24 minutes ago)
VFR
Clouds
Temperature Dewpoint
3°C / 37°F 3°C / 37°F
Humidity Altimeter Pressure
100% 30.23" Hg 1024 hPa